Disclaimer

Please do not use the information listed here in-flight or in-navigation, as they are not provided to us by the airports but are provided by volunteers, so they might be outdated.

Search


Regions


Airport information page

Radio informations:
OXFORD GND - 121.95 MHz

Airport informations:
Latitude: 51° 50' 13.00" N
Longitude: 001° 19' 12.00" W
Elevation: 270 feet - 82 meters
Operating hours: Remarks
Operating agency: Civil government, landing fees and diplomatic clearance may be required
Timezone: UTC 0(+1DT) - Last Sunday in March to last Sunday in October
Fuel: Jet A1, without icing nhibitor.

100/130 MIL Spec, low lead, aviation gasoline (BLUE)

Runway information:
01/19 - 4327 x 75 feet< - >1319 x 23 meters
03/21 - 2887 x 154 feet< - >880 x 47 meters
09/27 - 2887 x 148 feet< - >880 x 45 meters
11/29 - 2493 x 92 feet< - >760 x 28 meters

Recent METARs:
EGTK 151150Z 13016KT 7000 -RA FEW017 BKN030 02/00 Q1010
EGTK 151220Z 13014KT 7000 -RA FEW014 BKN022 02/00 Q1009
EGTK 151250Z 13014KT 6000 -RA FEW011 BKN017 02/01 Q1008

Airport on the map: